Latest Coastal Weather Observations for Sydney Airport

IDN60701

Issued at 5:25 pm EDT Friday 31 October 2014 (issued every 10 minutes, with the page automatically refreshed every 10 minutes)

About coastal observations | Map of coastal stations | Coastal observations for NSW | Marine services | Other Formats
Station Details ID: 066037 Name: SYDNEY AIRPORT AMO Lat: -33.95 Lon: 151.17 Height: 6.0 m
Data from the previous 72 hours. | See also: Recent months at Sydney Airport
Date/Time
EDT
Temp

°C
Wind Pressure Rain
since 9am
mm
Weather Cloud Vis
km
Sea
Height
m
Swell
Dir
 
Speed
knots
Gust
knots
hPa Trend Height
m
Period
s
Dir
31/05:00pm 27.2 NE 18 21 1006.3 - 0.0 - - 10 - - - -
31/04:30pm 27.7 NE 20 24 1006.4 - 0.0 - - 10 - - - -
31/04:00pm 29.1 NE 18 24 1006.7 - 0.0 - - 10 - - - -
31/03:30pm 29.0 ENE 17 22 1007.3 - 0.0 - - 10 - - - -
31/03:00pm 29.8 ENE 15 17 1007.7 F 0.0 Haze Mostly cloudy 25 - - - -
31/02:30pm 29.8 ENE 15 18 1008.3 - 0.0 - - 10 - - - -
31/02:00pm 30.4 ENE 13 16 1008.9 - 0.0 - - 10 - - - -
31/01:30pm 30.4 ENE 14 18 1009.4 - 0.0 - - 10 - - - -
31/01:00pm 30.4 E 14 16 1009.9 - 0.0 - - 10 - - - -
31/12:30pm 30.1 ENE 13 16 1010.5 - 0.0 - - 10 - - - -
31/12:00pm 30.3 E 12 13 1011.0 F 0.0 Haze Mostly clear 20 - - - -
31/11:30am 31.0 N 7 10 1011.6 - 0.0 - - 10 - - - -
31/11:00am 30.3 NW 7 10 1012.4 - 0.0 - - 10 - - - -
31/10:30am 28.0 NNW 7 10 1012.8 - 0.0 - - 10 - - - -
31/10:00am 26.7 NW 5 8 1013.1 - 0.0 - - 10 - - - -
31/09:30am 24.6 WNW 5 8 1013.3 - 0.0 - - 10 - - - -
31/09:00am 22.2 W 5 7 1013.3 F 0.0 Haze Mostly clear 20 - - - -
31/08:30am 21.6 W 5 8 1013.2 - 0.0 - - 10 - - - -
31/08:00am 20.6 NW 6 8 1013.1 - 0.0 - - 10 - - - -
31/07:30am 19.5 NW 6 8 1013.1 - 0.0 - - 10 - - - -
31/07:00am 18.4 NW 6 7 1013.0 - 0.0 - - 10 - - - -
31/06:30am 17.8 NW 5 6 1012.9 - 0.0 - - 10 - - - -
31/06:00am 17.4 WNW 4 5 1012.8 R 0.0 Haze Mostly clear 20 - - - -
31/05:30am 17.0 W 4 5 1012.8 - 0.0 - Mostly clear 10 - - - -
31/05:00am 17.4 S 4 5 1012.6 - 0.0 - Mostly clear 10 - - - -
31/04:30am 17.2 SSW 5 5 1012.5 - 0.0 - - 10 - - - -
31/04:00am 17.8 S 5 6 1012.5 - 0.0 - - 10 - - - -
31/03:30am 17.5 S 5 5 1012.4 - 0.0 - - 10 - - - -
31/03:00am 17.8 S 6 7 1012.4 R 0.0 Haze Clear 15 - - - -
31/02:30am 18.7 S 7 8 1012.7 - 0.0 - - 10 - - - -
31/02:00am 18.6 SW 5 5 1012.7 - 0.0 - - 10 - - - -
31/01:30am 18.9 S 4 5 1013.0 - 0.0 - - 10 - - - -
31/01:00am 19.2 CALM 0 0 1013.3 - 0.0 - - 10 - - - -
31/12:30am 19.3 N 2 3 1013.4 - 0.0 - - 10 - - - -
31/12:00am 20.2 NNE 4 5 1013.4 S 0.0 Fine Clear 30 - - - -
 
Date/Time
EDT
Temp

°C
Wind Pressure Rain
since 9am
mm
Weather Cloud Vis
km
Sea
Height
m
Swell
Dir
 
Speed
knots
Gust
knots
hPa Trend Height
m
Period
s
Dir
30/11:30pm 20.3 NE 7 7 1013.4 - 0.0 - - 10 - - - -
30/11:00pm 21.7 ENE 5 6 1013.5 - 0.0 - - 10 - - - -
30/10:30pm 21.4 ENE 6 7 1013.6 - 0.0 - - 10 - - - -
30/10:00pm 22.4 NE 5 7 1013.4 - 0.0 - - 10 - - - -
30/09:30pm 23.6 NNE 9 11 1013.2 - 0.0 - - 10 - - - -
30/09:00pm 23.7 NNE 12 16 1013.0 R 0.0 Fine Clear 30 - - - -
30/08:30pm 23.4 NNE 14 18 1012.8 - 0.0 - - 10 - - - -
30/08:00pm 22.6 NNE 7 9 1012.5 - 0.0 - - 10 - - - -
30/07:30pm 22.8 NNE 9 10 1012.2 - 0.0 - - 10 - - - -
30/07:00pm 24.3 NE 10 13 1011.5 - 0.0 - - 10 - - - -
30/06:30pm 25.5 NE 15 19 1011.0 - 0.0 - - 10 - - - -
30/06:00pm 26.1 NE 16 20 1010.6 F 0.0 Fine Mostly clear 30 - - - -
30/05:30pm 27.0 NE 16 19 1010.4 - 0.0 - - 10 - - - -
30/05:00pm 27.5 NE 14 17 1010.3 - 0.0 - - 10 - - - -
30/04:30pm 29.0 NE 14 20 1010.2 - 0.0 - - 10 - - - -
30/04:00pm 31.3 ENE 12 16 1010.4 - 0.0 - - 10 - - - -
30/03:30pm 31.3 E 10 12 1010.9 - 0.0 - - 10 - - - -
30/03:00pm 30.1 W 10 16 1011.3 F 0.0 Fine Partly cloudy 30 - - - -
30/02:30pm 30.1 WNW 11 16 1011.8 - 0.0 - - 10 - - - -
30/02:00pm 30.9 WNW 10 15 1012.2 - 0.0 - - 10 - - - -
30/01:30pm 30.2 WNW 13 17 1012.4 - 0.0 - - 10 - - - -
30/01:00pm 30.3 WNW 11 16 1012.8 - 0.0 - - 10 - - - -
30/12:30pm 28.6 NNW 11 15 1013.1 - 0.0 - - 10 - - - -
30/12:00pm 28.7 WSW 12 17 1013.6 F 0.0 Fine Partly cloudy 25 - - - -
30/11:30am 27.5 SSW 6 9 1014.2 - 0.0 - - 10 - - - -
30/11:00am 24.9 WNW 4 7 1014.5 - 0.0 - - 10 - - - -
30/10:30am 25.0 NW 6 8 1014.8 - 0.0 - - 10 - - - -
30/10:00am 24.3 NW 7 11 1015.2 - 0.0 - - 10 - - - -
30/09:30am 23.2 NW 7 9 1015.3 - 0.0 - - 10 - - - -
30/09:00am 21.2 WNW 7 9 1015.5 F 0.0 Haze Mostly clear 18 - - - -
30/08:30am 19.9 NW 7 9 1015.6 - 0.0 - - 10 - - - -
30/08:00am 18.8 WNW 9 13 1015.5 - 0.0 - - 10 - - - -
30/07:30am 18.9 WNW 6 9 1015.4 - 0.0 - - 10 - - - -
30/07:00am 18.3 NW 7 9 1015.1 - 0.0 - - 10 - - - -
30/06:30am 18.2 NNW 5 6 1015.0 - 0.0 - - 10 - - - -
30/06:00am 17.5 NNW 4 5 1014.8 F 0.0 Haze Mostly clear 15 - - - -
30/05:30am 16.9 WNW 4 4 1014.7 - 0.0 - - 10 - - - -
30/05:00am 16.7 NNW 4 4 1014.6 - 0.0 - - 10 - - - -
30/04:30am 16.8 NNW 4 4 1014.7 - 0.0 - - 10 - - - -
30/04:00am 17.0 NNW 4 4 1014.9 - 0.0 - - 10 - - - -
30/03:30am 17.2 NW 5 6 1015.1 - 0.0 - - 10 - - - -
30/03:00am 17.1 WNW 6 7 1015.4 F 0.0 Haze Clear 15 - - - -
30/02:30am 18.0 NW 6 7 1015.5 - 0.0 - - 10 - - - -
30/02:00am 18.3 N 8 10 1015.7 - 0.0 - Mostly clear 10 - - - -
30/01:30am 19.2 N 8 10 1016.0 - 0.0 - Mostly clear 10 - - - -
30/01:00am 19.2 N 8 10 1016.2 - 0.0 - Mostly clear 10 - - - -
30/12:30am 19.3 NNE 9 11 1016.6 - 0.0 - - 10 - - - -
30/12:00am 19.2 N 10 14 1016.9 F 0.0 Haze Mostly clear 18 - - - -
 
Date/Time
EDT
Temp

°C
Wind Pressure Rain
since 9am
mm
Weather Cloud Vis
km
Sea
Height
m
Swell
Dir
 
Speed
knots
Gust
knots
hPa Trend Height
m
Period
s
Dir
29/11:30pm 19.9 NNE 11 15 1016.9 - 0.0 - Mostly clear 10 - - - -
29/11:00pm 19.8 NNE 11 14 1017.0 - 0.0 - Mostly clear 10 - - - -
29/10:30pm 19.8 NNE 11 14 1016.9 - 0.0 - Mostly clear 10 - - - -
29/10:00pm 20.1 NNE 10 14 1017.0 - 0.0 - Mostly clear 10 - - - -
29/09:30pm 20.0 NNE 11 16 1017.0 - 0.0 - Partly cloudy 10 - - - -
29/09:00pm 20.2 NNE 10 14 1017.0 R 0.0 Haze Mostly cloudy 18 - - - -
29/08:30pm 20.6 NE 12 15 1016.7 - 0.0 - Mostly clear 10 - - - -
29/08:00pm 20.6 NE 11 14 1016.5 - 0.0 - Mostly clear 10 - - - -
29/07:30pm 19.5 NE 12 18 1016.2 - 0.0 - Mostly clear 10 - - - -
29/07:00pm 20.0 ENE 14 17 1015.9 - 0.0 - Mostly clear 10 - - - -
29/06:30pm 19.7 ENE 13 18 1015.6 - 0.0 - Mostly cloudy 10 - - - -
29/06:00pm 19.9 ENE 15 19 1015.1 F 0.0 Haze Mostly cloudy 18 - - - -
29/05:30pm 20.1 ENE 17 25 1015.1 - 0.0 - Partly cloudy 10 - - - -
29/05:00pm 21.0 ENE 16 21 1015.1 - 0.0 - Partly cloudy 10 - - - -
29/04:30pm 20.7 E 16 21 1015.2 - 0.0 - Partly cloudy 10 - - - -
29/04:00pm 20.8 E 17 22 1015.4 - 0.0 - Partly cloudy 10 - - - -
29/03:30pm 21.8 E 17 21 1015.4 - 0.0 - Mostly clear 10 - - - -
29/03:00pm 22.3 E 15 19 1015.7 R 0.0 Haze Mostly clear 15 - - - -
29/02:30pm 21.9 E 16 19 1016.0 - 0.0 - Partly cloudy 10 - - - -
29/02:00pm 21.8 E 16 20 1016.3 - 0.0 - Mostly clear 10 - - - -
29/01:30pm 22.2 E 14 18 1016.5 - 0.0 - Mostly clear 10 - - - -
29/01:00pm 23.0 E 11 16 1016.6 - 0.0 - Partly cloudy 10 - - - -
29/12:30pm 22.0 SE 12 15 1016.8 - 0.0 - Mostly clear 10 - - - -
29/11:00am 21.5 S 9 11 1017.7 - 0.0 - Mostly clear 10 - - - -
29/10:30am 20.7 S 11 14 1017.7 - 0.0 - Mostly clear 10 - - - -
29/10:00am 20.5 S 11 13 1017.6 - 0.0 - Mostly clear 10 - - - -
29/09:30am 20.3 S 12 16 1017.5 - 0.0 - Mostly clear 10 - - - -
29/09:00am 20.6 SSW 7 9 1017.3 R 0.0 Fine Mostly clear 30 - - - -
29/08:30am 20.0 WSW 8 10 1017.1 - 0.0 - Mostly clear 10 - - - -
29/08:00am 19.5 W 8 9 1016.9 - 0.0 - Mostly clear 10 - - - -
29/07:30am 18.7 WSW 6 8 1016.6 - 0.0 - Mostly clear 10 - - - -
29/07:00am 18.1 S 3 5 1016.3 - 0.0 - Mostly clear 10 - - - -
29/06:30am 17.0 SSW 6 9 1015.9 - 0.0 - Mostly clear 10 - - - -
29/06:00am 16.8 SSW 5 6 1015.5 R 0.0 Fine Mostly clear 30 - - - -
29/05:30am 16.3 WSW 6 7 1015.1 - 0.0 - - 10 - - - -
29/05:00am 16.9 W 4 5 1014.8 - 0.0 - - 10 - - - -
29/04:30am 17.3 W 5 9 1014.5 - 0.0 - - 10 - - - -
29/04:00am 17.7 W 5 7 1014.2 - 0.0 - - 10 - - - -
29/03:30am 18.0 W 6 8 1014.0 - 0.0 - - 10 - - - -
29/03:00am 18.1 W 6 8 1013.9 R 0.0 Fine Clear 30 - - - -
29/02:30am 18.4 W 9 10 1013.8 - 0.0 - - 10 - - - -
29/02:00am 19.0 WSW 10 15 1013.6 - 0.0 - - 10 - - - -
29/01:30am 19.5 WSW 10 12 1013.5 - 0.0 - - 10 - - - -
29/01:00am 20.1 SW 9 11 1013.7 - 0.0 - - 10 - - - -
29/12:30am 20.4 SW 17 21 1013.7 - 0.0 - - 10 - - - -
29/12:00am 20.3 SW 9 12 1013.7 R 0.0 Fine Clear 30 - - - -
 
Date/Time
EDT
Temp

°C
Wind Pressure Rain
since 9am
mm
Weather Cloud Vis
km
Sea
Height
m
Swell
Dir
 
Speed
knots
Gust
knots
hPa Trend Height
m
Period
s
Dir
28/11:30pm 20.3 SW 8 9 1013.4 - 0.0 - - 10 - - - -
28/11:00pm 20.4 WSW 9 9 1013.1 - 0.0 - - 10 - - - -
28/10:30pm 21.0 SW 10 11 1012.9 - 0.0 - - 10 - - - -
28/10:00pm 21.1 WSW 7 9 1012.7 - 0.0 - - 10 - - - -
28/09:30pm 22.2 WSW 11 14 1012.4 - 0.0 - - 10 - - - -
28/09:00pm 22.4 WSW 10 14 1012.0 R 0.0 Fine Mostly clear 30 - - - -
28/08:30pm 23.4 W 9 13 1011.4 - 0.0 - - 10 - - - -
28/08:00pm 24.2 WSW 8 12 1010.9 - 0.0 - - 10 - - - -
28/07:30pm 24.9 W 15 19 1010.1 - 0.0 - - 10 - - - -
28/07:00pm 25.5 W 16 22 1009.5 - 0.0 - - 10 - - - -
28/06:30pm 26.7 W 15 22 1008.8 - 0.0 - - 10 - - - -
28/06:00pm 27.0 W 15 21 1008.4 F 0.0 Fine Partly cloudy 30 - - - -
28/05:30pm 27.6 W 15 25 1008.2 - 0.0 - - 10 - - - -

Other Formats:

Comma delimited format used in spreadsheet applications
http://www.bom.gov.au/fwo/IDN60701/IDN60701.94767.axf

JavaScript Object Notation format (JSON) in row-major order
http://www.bom.gov.au/fwo/IDN60701/IDN60701.94767.json